Terminal Aerodrome Forecast
Issued by NWS

Home | Current Version | Previous Version | Text Only | Print | Product List | Glossary On
Versions: 1 2 3 4 5 6 7 8 9 10 11 12 13 14 15
000
FTUS42 KMHX 221522 AAA
TAFOAJ
TAF AMD
KOAJ 221522Z 2215/2312 21005KT P6SM BKN040
      TEMPO 2215/2217 OVC025
     FM221800 20010KT P6SM VCTS BKN050CB
     FM230400 20005KT P6SM VCTS BKN030CB
     FM230600 20005KT 6SM -TSRA OVC026CB
      AMD LTD TO CLD VIS AND WIND=

USA.gov is the U.S. government's official web portal to all federal, state and local government web resources and services.